Flight Track Log - Related Links

Times and Time Zones

All times are in EDT time to prevent confusion due to time zone crossing. See the AAY860 flight status page for this flight to view local times or setup timezone preferences in your user account.

Time Position Orientation Groundspeed Altitude Reporting Facility
EDT Latitude Longitude Course Direction KTS MPH feet Rate Location/Type
Fri 06:31:30 AM 27.9167 -82.6833 330° Northwest 148 170 500  Level Tampa TRACON
Fri 06:32:18 AM 27.9667 -82.6833 360° North 180 207 1,700 1,611 Climbing Tampa TRACON
Fri 06:33:18 AM 28.0167 -82.6500 30° Northeast 284 327 3,400 2,370 Climbing Tampa TRACON
Fri 06:35:00 AM 28.5025 -83.0564 330° Northwest  Level FlightAware Approximate
Fri 06:35:00 AM 28.1447 -82.6239 10° North 279 321 8,100  Level Miami Center
Fri 06:35:51 AM 28.2269 -82.6333 354° North 287 330 10,600 2,270 Climbing Jacksonville Center
Fri 06:36:51 AM 28.3167 -82.6425 355° North 303 349 12,300 1,950 Climbing Jacksonville Center
Fri 06:37:51 AM 28.4167 -82.6472 358° North 332 382 14,500 2,150 Climbing Jacksonville Center
Fri 06:38:51 AM 28.5150 -82.6564 355° North 349 402 16,600 2,207 Climbing Jacksonville Center
Fri 06:39:18 AM 28.5644 -82.6608 342° North 365 420 17,700 2,100 Climbing FlightAware ADS-B
Fri 06:39:51 AM 28.6089 -82.6939 341° North 349 402 18,700 1,161 Climbing Jacksonville Center
Fri 06:40:51 AM 28.6819 -82.7553 324° Northwest 349 402 19,500 900 Climbing Jacksonville Center
Fri 06:41:51 AM 28.7656 -82.8264 323° Northwest 362 417 20,500 1,000 Climbing Jacksonville Center
Fri 06:42:51 AM 28.8492 -82.8972 323° Northwest 374 430 21,500 1,000 Climbing Jacksonville Center
Fri 06:43:51 AM 28.9347 -82.9708 323° Northwest 380 437 22,500 1,000 Climbing Jacksonville Center
Fri 06:44:51 AM 29.0222 -83.0444 324° Northwest 386 444 23,500 1,000 Climbing Jacksonville Center
Fri 06:45:51 AM 29.1139 -83.1208 324° Northwest 391 450 24,500 1,200 Climbing Jacksonville Center
Fri 06:46:51 AM 29.2225 -83.1639 341° North 392 451 25,900 1,300 Climbing Jacksonville Center
Fri 06:47:51 AM 29.3350 -83.1950 346° North 410 472 27,100 1,050 Climbing Jacksonville Center
Fri 06:48:51 AM 29.4519 -83.2264 347° North 416 479 28,000 1,100 Climbing Jacksonville Center
Fri 06:49:51 AM 29.5728 -83.2603 346° North 433 498 29,300 478 Climbing Jacksonville Center
Fri 06:55:58 AM 30.3196 -83.4672 346° North 441 507 31,400 385 Climbing FlightAware ADS-B (KONZ)
Fri 06:56:36 AM 30.3946 -83.4882 346° North 443 510 31,900 882 Climbing FlightAware ADS-B (KONZ)
Fri 06:57:06 AM 30.4532 -83.5048 346° North 449 517 32,400 963 Climbing FlightAware ADS-B (KONZ)
Fri 06:57:57 AM 30.5587 -83.5347 346° North 452 520 33,200 951 Climbing FlightAware ADS-B (KONZ)
Fri 06:58:28 AM 30.6222 -83.5526 346° North 453 521 33,700 984 Climbing FlightAware ADS-B (KONZ)
Fri 06:58:58 AM 30.6787 -83.5686 346° North 453 521 34,200 1,029 Climbing FlightAware ADS-B (KONZ)
Fri 06:59:38 AM 30.7634 -83.5925 346° North 454 522 34,900 987 Climbing FlightAware ADS-B (KONZ)
Fri 07:00:17 AM 30.8444 -83.6156 346° North 454 522 35,500 1,029 Climbing FlightAware ADS-B (KONZ)
Fri 07:00:48 AM 30.9082 -83.6336 346° North 451 519 36,100 943 Climbing FlightAware ADS-B (KONZ)
Fri 07:01:27 AM 30.9832 -83.6551 346° North 450 518 36,600 600 Climbing FlightAware ADS-B (KONZ)
Fri 07:02:08 AM 31.0713 -83.6804 346° North 455 524 36,900 500 Climbing FlightAware ADS-B (KONZ)
Fri 07:02:51 AM 31.1389 -83.7008 346° North 443 510 37,300 449 Climbing Jacksonville Center
Fri 07:04:35 AM 31.3664 -83.7664 346° North 454 522 38,000 256 Climbing Atlanta Center
Fri 07:05:35 AM 31.4856 -83.8050 345° North 449 517 38,000  Level Atlanta Center
Fri 07:06:35 AM 31.6128 -83.8414 346° North 449 517 38,000  Level Atlanta Center
Fri 07:07:35 AM 31.7194 -83.8656 349° North 449 517 38,000  Level Atlanta Center
Fri 07:08:35 AM 31.8531 -83.9117 344° North 461 531 38,000  Level Atlanta Center
Fri 07:09:35 AM 31.9761 -83.9458 347° North 461 531 38,000  Level Atlanta Center
Fri 07:10:35 AM 32.1014 -83.9825 346° North 456 525 38,000  Level Atlanta Center
Fri 07:11:35 AM 32.2267 -84.0192 346° North 456 525 38,000  Level Atlanta Center
Fri 07:12:35 AM 32.3539 -84.0561 346° North 456 525 38,000 100 Level Atlanta Center
Fri 07:13:35 AM 32.4814 -84.0783 352° North 456 525 38,200 350 Climbing Atlanta Center
Fri 07:14:35 AM 32.6086 -84.0658 North 456 525 38,700 400 Climbing Atlanta Center
Fri 07:15:35 AM 32.7400 -84.0611 North 461 531 39,000 150 Climbing Atlanta Center
Fri 07:16:35 AM 32.8717 -84.0536 North 461 531 39,000  Level Atlanta Center
Fri 07:17:35 AM 33.0031 -84.0486 North 461 531 39,000  Level Atlanta Center
Fri 07:18:35 AM 33.1325 -84.0414 North 461 531 39,000  Level Atlanta Center
Fri 07:24:12 AM 33.9593 -83.9973 North 463 533 39,000  Level FlightAware ADS-B (KDZJ)
Fri 07:24:52 AM 34.0460 -83.9929 North 464 534 39,000  Level FlightAware ADS-B (KDZJ)
Fri 07:25:12 AM 34.0904 -83.9954 354° North 470 541 39,000  Level FlightAware ADS-B (KDZJ)
Fri 07:25:52 AM 34.1771 -84.0058 355° North 471 542 39,000  Level FlightAware ADS-B (KDZJ)
Fri 07:26:32 AM 34.2648 -84.0159 354° North 465 535 39,000  Level FlightAware ADS-B (KDZJ)
Fri 07:27:12 AM 34.3504 -84.0258 354° North 466 536 39,000  Level FlightAware ADS-B (KDZJ)
Fri 07:27:53 AM 34.4403 -84.0366 354° North 472 543 39,000  Level FlightAware ADS-B (KDZJ)
Fri 07:28:31 AM 34.5248 -84.0467 354° North 470 541 39,000  Level FlightAware ADS-B (KDZJ)
Fri 07:29:10 AM 34.6078 -84.0564 354° North 468 539 39,000  Level FlightAware ADS-B (KDZJ)
Fri 07:29:47 AM 34.6879 -84.0660 354° North 466 536 39,000  Level FlightAware ADS-B (KDZJ)
Fri 07:30:32 AM 34.7846 -84.0776 355° North 466 536 39,000  Level FlightAware ADS-B (KDZJ)
Fri 07:31:12 AM 34.8713 -84.0878 354° North 465 535 39,000  Level FlightAware ADS-B (KDZJ)
Fri 07:31:51 AM 34.9530 -84.0976 354° North 456 525 39,000 -380 Level FlightAware ADS-B (KDZJ)
Fri 07:32:31 AM 35.0398 -84.1078 354° North 451 519 38,500 -825 Descending FlightAware ADS-B (KDZJ)
Fri 07:33:11 AM 35.1245 -84.1179 354° North 454 522 37,900 -889 Descending FlightAware ADS-B (KDZJ)
Fri 07:33:52 AM 35.2079 -84.1281 354° North 436 502 37,300 -975 Descending FlightAware ADS-B (KDZJ)
Fri 07:34:31 AM 35.2884 -84.1379 354° North 439 505 36,600 -1,050 Descending FlightAware ADS-B (KDZJ)
Fri 07:35:12 AM 35.3756 -84.1485 354° North 454 522 35,900 -726 Descending FlightAware ADS-B (KDZJ)
Fri 07:36:35 AM 35.4817 -84.1606 354° North 441 507 35,100 -703 Descending Indianapolis Center
Fri 07:37:37 AM 35.6061 -84.1761 354° North 451 519 34,200 -878 Descending Indianapolis Center
Fri 07:38:38 AM 35.7283 -84.1911 354° North 449 517 33,300 -1,017 Descending Indianapolis Center
Fri 07:39:35 AM 35.8558 -84.2103 353° North 449 517 32,200 -978 Descending Atlanta Center
Fri 07:41:42 AM 36.1056 -84.2372 355° North 453 521 30,300 -952 Descending Indianapolis Center
Fri 07:42:44 AM 36.2508 -84.2719 349° North 451 519 29,200 -927 Descending Indianapolis Center
Fri 07:43:45 AM 36.3619 -84.3250 339° North 437 503 28,400 -829 Descending Indianapolis Center
Fri 07:44:47 AM 36.4694 -84.3769 339° North 424 488 27,500 -829 Descending Indianapolis Center
Fri 07:45:48 AM 36.5708 -84.4233 340° North 402 463 26,700 -829 Descending Indianapolis Center
Fri 07:46:50 AM 36.6725 -84.4536 347° North 386 444 25,800 -871 Descending Indianapolis Center
Fri 07:47:52 AM 36.7772 -84.4747 351° North 384 442 24,900 -1,024 Descending Indianapolis Center
Fri 07:48:53 AM 36.8850 -84.4736 360° North 385 443 23,700 -1,902 Descending Indianapolis Center
Fri 07:49:55 AM 37.0081 -84.4742 360° North 381 438 21,000 -2,439 Descending Indianapolis Center
Fri 07:50:56 AM 37.1150 -84.4742 360° North 381 438 18,700 -2,000 Descending Indianapolis Center
Fri 07:51:58 AM 37.2194 -84.4731 360° North 379 436 16,900 -2,195 Descending Indianapolis Center
Fri 07:52:59 AM 37.3178 -84.4731 360° North 361 415 14,200 -1,902 Descending Indianapolis Center
Fri 07:54:01 AM 37.4131 -84.4756 359° North 349 402 13,000 -1,161 Descending Indianapolis Center
Fri 07:55:03 AM 37.4986 -84.4831 356° North 316 364 11,800 -1,707 Descending Indianapolis Center
Fri 07:56:04 AM 37.5786 -84.4847 359° North 291 335 9,500 -2,098 Descending Indianapolis Center
Fri 07:57:06 AM 37.6569 -84.4911 356° North 287 330 7,500 -1,561 Descending Indianapolis Center
Fri 07:58:07 AM 37.7444 -84.4981 356° North 273 314 6,300 -1,073 Descending Indianapolis Center
Fri 07:59:09 AM 37.8022 -84.5386 331° Northwest 246 283 5,300 -968 Descending Indianapolis Center
Fri 08:00:11 AM 37.8578 -84.5786 330° Northwest 231 266 4,300 -927 Descending Indianapolis Center
Fri 08:01:12 AM 37.9061 -84.6128 331° Northwest 210 242 3,400 -780 Descending Indianapolis Center
Fri 08:02:14 AM 37.9508 -84.6431 332° Northwest 190 219 2,700 -677 Descending Indianapolis Center
Fri 08:03:16 AM 37.9875 -84.6550 346° North 154 177 2,000 -732 Descending Indianapolis Center
Fri 08:04:17 AM 38.0258 -84.6225 34° Northeast 150 173 1,200 -787 Descending Indianapolis Center
Fri 08:06:00 AM 38.0333 -84.6000 302° West  Level FlightAware Approximate

Login

Don't have an account? Register now (free) for customized features, flight alerts, and more!